Acmar, AL

11:13 PM CDT on September 14, 2014 (GMT -0500)
Moore Field | Change Station
CLOSE
Current Station
Personal Weather Station
Location: Moody, AL
Elevation: 728 ft
Nearby Weather Stations

Elev 728 ft 33.61 °N, 86.48 °W | Updated 3 minutes ago

Partly Cloudy
Partly Cloudy
69.1 °F
Feels Like 69.1 °F
N
3.0
Wind Variable Wind from NNE
Gusts 4.0 mph

Today
High -- | Low -- °F
--% Chance of Precip.
Yesterday
High -- | Low -- °F
Precip. -- in
6:28 AM 6:53 PM
Waning Gibbous, 59% visible
Pressure 30.15 in
Visibility 10.0 miles
Clouds Scattered Clouds 25000 ft
Dew Point 68 °F
Humidity 96%
Rainfall 0.00 in
Snow Depth Not available.
UV 0 out of 12
Pollen 8.50 out of 12
Ozone Good
PM2.5 Good
Flu Activity Not available.
METAR KBHM 150353Z 04004KT 10SM SCT250 24/19 A3017 RMK AO2 SLP208 T02440189

More Conditions Fewer Conditions

Pressure 30.15 in
Visibility 10.0 miles
Clouds Scattered Clouds 25000 ft
Dew Point 68 °F
Humidity 96%
Rainfall 0.00 in
Snow Depth Not available.
UV 0 out of 12
Pollen 8.50 out of 12
Ozone Good
PM2.5 Good
Flu Activity Not available.
METAR KBHM 150353Z 04004KT 10SM SCT250 24/19 A3017 RMK AO2 SLP208 T02440189

More Conditions Fewer Conditions

10-Day Weather Forecast

Almanac

Astronomy

Sep. 14, 2014 Rise Set
Actual Time 6:28 AM CDT 6:53 PM CDT
Civil Twilight 6:03 AM CDT 7:18 PM CDT
Nautical Twilight 5:34 AM CDT 7:47 PM CDT
Astronomical Twilight 5:04 AM CDT 8:17 PM CDT
Moon 11:02 PM CDT (9/14) 12:17 PM CDT (9/14)
Length of Visible Light 13h 14m
Length of Day
12h 25m
Tomorrow will be 2m 3s shorter.
Waning Gibbous, 59% of the Moon is Illuminated
Sep 15
Waning Gibbous
Sep 15
Last Quarter
Sep 24
New
Oct 1
First Quarter
Oct 8
Full

Today's Extremes

State Highs State Lows

Community

WunderPhotos

Upload Photos

1,753,399 photos uploaded!

Nearby

Air Quality

  Air Quality AQ Index Pollutant
Yesterday Good
PM10
Yesterday Good
OZONE
Current Good
PM2.5
Current Good
OZONE
Sunday Moderate
PM2.5
Sunday Good
OZONE
Monday Moderate
PM2.5
Monday Good
OZONE

Snow Depth

Station Depth Elevation
No new snow has been reported.

Earthquake Activity

City Distance Mag. Time & Date
No recent earthquake activity has been reported nearby.
Minimum magnitude displayed is 2.5.

Coastal Water Temperatures

Place Temperature
No Stations Reporting

Nearby Weather Stations